PWSweather.com
Personal Weather Stations
Station Observations

YeovilGB

Lat: 50.949, Lon: -2.627

Elevation: 70

Station Type: Vantage Pro

http://www.yeovil-weather.me.uk/

High Low Average
Temperature 46.9°F8.3°C 39.2°F4.0°C 43.7°F6.5°C
Dew Point 43.9°F6.6°C 34.7°F1.5°C 40.1°F4.5°C
Winds 12.7 mph 20.4 kmh Calm Calm 3.0 mph SW4.8 kmh SW
Wind Gusts 19.6 mph31.5 kmh -- 6.0 mph9.7 kmh
Humidity 95% 72% 87%
Pressure 29.64 in1003.7 mb 29.46 in997.6 mb -
Precipitation 0.08 in2.0 mm - -
Hour Temp Dew Point Humidity Winds Wind Gusts Pressure Precip Precip Rate Daily Precip Total
12:00 AM 44.4°F6.9°C 38.6°F3.7°C 80% 4.6 mph SW7.4 kmh SW 13.8 mph22.2 kmh 29.49 in998.6 mb - 0.00 in0.0 mm 0.00 in0.0 mm
12:10 AM 44.4°F6.9°C 38.6°F3.7°C 80% 6.9 mph SW11.1 kmh SW 13.8 mph22.2 kmh 29.49 in998.6 mb - 0.00 in0.0 mm 0.00 in0.0 mm
12:20 AM 44.3°F6.8°C 38.8°F3.8°C 81% 6.9 mph WSW11.1 kmh WSW 11.5 mph18.5 kmh 29.49 in998.6 mb - 0.00 in0.0 mm 0.00 in0.0 mm
12:30 AM 44.1°F6.7°C 38.7°F3.7°C 81% 2.3 mph SW3.7 kmh SW 11.5 mph18.5 kmh 29.49 in998.6 mb - 0.00 in0.0 mm 0.00 in0.0 mm
12:40 AM 44.1°F6.7°C 38.6°F3.7°C 81% 3.5 mph SW5.6 kmh SW 10.4 mph16.7 kmh 29.50 in999.0 mb - 0.00 in0.0 mm 0.00 in0.0 mm
12:50 AM 44.0°F6.7°C 38.5°F3.6°C 81% 3.5 mph SW5.6 kmh SW 12.7 mph20.4 kmh 29.50 in999.0 mb - 0.00 in0.0 mm 0.00 in0.0 mm
01:00 AM 43.8°F6.6°C 38.3°F3.5°C 81% 3.5 mph SW5.6 kmh SW 5.8 mph9.3 kmh 29.50 in999.0 mb - 0.00 in0.0 mm 0.00 in0.0 mm
01:10 AM 43.8°F6.6°C 38.3°F3.5°C 81% 2.3 mph WSW3.7 kmh WSW 8.1 mph13.0 kmh 29.50 in999.0 mb - 0.00 in0.0 mm 0.00 in0.0 mm
01:20 AM 43.7°F6.5°C 38.2°F3.4°C 81% 5.8 mph SW9.3 kmh SW 9.2 mph14.8 kmh 29.51 in999.3 mb - 0.00 in0.0 mm 0.00 in0.0 mm
01:30 AM 43.5°F6.4°C 38.1°F3.4°C 81% 3.5 mph SW5.6 kmh SW 10.4 mph16.7 kmh 29.51 in999.3 mb - 0.00 in0.0 mm 0.00 in0.0 mm
01:40 AM 43.3°F6.3°C 38.2°F3.4°C 82% 5.8 mph SW9.3 kmh SW 9.2 mph14.8 kmh 29.51 in999.3 mb - 0.00 in0.0 mm 0.00 in0.0 mm
01:50 AM 43.1°F6.2°C 38.0°F3.3°C 82% 2.3 mph SW3.7 kmh SW 5.8 mph9.3 kmh 29.51 in999.3 mb - 0.00 in0.0 mm 0.00 in0.0 mm
02:00 AM 42.8°F6.0°C 37.7°F3.2°C 82% 4.6 mph SW7.4 kmh SW 6.9 mph11.1 kmh 29.52 in999.7 mb - 0.00 in0.0 mm 0.00 in0.0 mm
02:10 AM 42.6°F5.9°C 37.8°F3.2°C 83% 3.5 mph SW5.6 kmh SW 6.9 mph11.1 kmh 29.52 in999.7 mb - 0.00 in0.0 mm 0.00 in0.0 mm
02:20 AM 42.2°F5.7°C 37.8°F3.2°C 84% 2.3 mph SW3.7 kmh SW 6.9 mph11.1 kmh 29.52 in999.7 mb - 0.00 in0.0 mm 0.00 in0.0 mm
02:30 AM 41.9°F5.5°C 37.7°F3.2°C 85% 1.2 mph SW1.9 kmh SW 3.5 mph5.6 kmh 29.52 in999.7 mb - 0.00 in0.0 mm 0.00 in0.0 mm
02:40 AM 41.6°F5.3°C 37.4°F3.0°C 85% Calm Calm -- 29.52 in999.7 mb - 0.00 in0.0 mm 0.00 in0.0 mm
02:50 AM 41.2°F5.1°C 37.1°F2.8°C 85% 1.2 mph SW1.9 kmh SW 3.5 mph5.6 kmh 29.52 in999.7 mb - 0.00 in0.0 mm 0.00 in0.0 mm
03:00 AM 40.8°F4.9°C 36.6°F2.6°C 85% Calm Calm 1.2 mph1.9 kmh 29.52 in999.7 mb - 0.00 in0.0 mm 0.00 in0.0 mm
03:10 AM 40.4°F4.7°C 36.5°F2.5°C 86% 1.2 mph SW1.9 kmh SW 3.5 mph5.6 kmh 29.52 in999.7 mb - 0.00 in0.0 mm 0.00 in0.0 mm
03:20 AM 40.0°F4.4°C 36.4°F2.4°C 87% Calm Calm 3.5 mph5.6 kmh 29.53 in1000.0 mb - 0.00 in0.0 mm 0.00 in0.0 mm
03:30 AM 39.7°F4.3°C 36.1°F2.3°C 87% Calm Calm 1.2 mph1.9 kmh 29.53 in1000.0 mb - 0.00 in0.0 mm 0.00 in0.0 mm
03:40 AM 39.4°F4.1°C 36.1°F2.3°C 88% Calm Calm -- 29.53 in1000.0 mb - 0.00 in0.0 mm 0.00 in0.0 mm
03:50 AM 39.2°F4.0°C 36.2°F2.3°C 89% 1.2 mph SW1.9 kmh SW 6.9 mph11.1 kmh 29.53 in1000.0 mb - 0.00 in0.0 mm 0.00 in0.0 mm
04:00 AM 39.4°F4.1°C 36.7°F2.6°C 90% 1.2 mph SW1.9 kmh SW 5.8 mph9.3 kmh 29.54 in1000.3 mb - 0.00 in0.0 mm 0.00 in0.0 mm
04:10 AM 39.6°F4.2°C 36.9°F2.7°C 90% 2.3 mph SW3.7 kmh SW 8.1 mph13.0 kmh 29.53 in1000.0 mb - 0.00 in0.0 mm 0.00 in0.0 mm
04:20 AM 40.0°F4.4°C 37.3°F2.9°C 90% Calm Calm -- 29.53 in1000.0 mb - 0.00 in0.0 mm 0.00 in0.0 mm
04:30 AM 40.1°F4.5°C 37.1°F2.8°C 89% 1.2 mph SW1.9 kmh SW 4.6 mph7.4 kmh 29.54 in1000.3 mb - 0.00 in0.0 mm 0.00 in0.0 mm
04:40 AM 40.1°F4.5°C 37.2°F2.9°C 89% 1.2 mph SW1.9 kmh SW 1.2 mph1.9 kmh 29.53 in1000.0 mb - 0.00 in0.0 mm 0.00 in0.0 mm
04:50 AM 40.2°F4.6°C 37.5°F3.1°C 90% 3.5 mph SW5.6 kmh SW 8.1 mph13.0 kmh 29.53 in1000.0 mb - 0.00 in0.0 mm 0.00 in0.0 mm
05:00 AM 40.4°F4.7°C 37.4°F3.0°C 89% 3.5 mph SW5.6 kmh SW 9.2 mph14.8 kmh 29.54 in1000.3 mb - 0.00 in0.0 mm 0.00 in0.0 mm
05:10 AM 40.5°F4.7°C 37.5°F3.1°C 89% 1.2 mph SW1.9 kmh SW 6.9 mph11.1 kmh 29.53 in1000.0 mb - 0.00 in0.0 mm 0.00 in0.0 mm
05:20 AM 40.6°F4.8°C 37.6°F3.1°C 89% 1.2 mph SW1.9 kmh SW 6.9 mph11.1 kmh 29.53 in1000.0 mb - 0.00 in0.0 mm 0.00 in0.0 mm
05:30 AM 40.6°F4.8°C 37.6°F3.1°C 89% Calm Calm 1.2 mph1.9 kmh 29.54 in1000.3 mb - 0.00 in0.0 mm 0.00 in0.0 mm
05:40 AM 40.6°F4.8°C 37.6°F3.1°C 89% Calm Calm -- 29.54 in1000.3 mb - 0.00 in0.0 mm 0.00 in0.0 mm
05:50 AM 40.6°F4.8°C 37.6°F3.1°C 89% Calm Calm -- 29.54 in1000.3 mb - 0.00 in0.0 mm 0.00 in0.0 mm
06:00 AM 40.5°F4.7°C 37.5°F3.1°C 89% Calm Calm -- 29.54 in1000.3 mb - 0.00 in0.0 mm 0.00 in0.0 mm
06:10 AM 40.6°F4.8°C 37.6°F3.1°C 89% 3.5 mph SW5.6 kmh SW 3.5 mph5.6 kmh 29.54 in1000.3 mb - 0.00 in0.0 mm 0.00 in0.0 mm
06:20 AM 40.8°F4.9°C 37.8°F3.2°C 89% Calm Calm -- 29.54 in1000.3 mb - 0.00 in0.0 mm 0.00 in0.0 mm
06:30 AM 40.9°F4.9°C 37.9°F3.3°C 89% 1.2 mph SSW1.9 kmh SSW 2.3 mph3.7 kmh 29.53 in1000.0 mb - 0.00 in0.0 mm 0.00 in0.0 mm
06:40 AM 41.1°F5.1°C 38.1°F3.4°C 89% 1.2 mph SW1.9 kmh SW 3.5 mph5.6 kmh 29.53 in1000.0 mb - 0.00 in0.0 mm 0.00 in0.0 mm
06:50 AM 41.2°F5.1°C 37.9°F3.3°C 88% 3.5 mph SW5.6 kmh SW 8.1 mph13.0 kmh 29.53 in1000.0 mb - 0.00 in0.0 mm 0.00 in0.0 mm
07:00 AM 41.5°F5.3°C 38.2°F3.4°C 88% 3.5 mph SW5.6 kmh SW 6.9 mph11.1 kmh 29.53 in1000.0 mb - 0.00 in0.0 mm 0.00 in0.0 mm
07:10 AM 41.6°F5.3°C 38.3°F3.5°C 88% 1.2 mph SW1.9 kmh SW 2.3 mph3.7 kmh 29.54 in1000.3 mb - 0.00 in0.0 mm 0.00 in0.0 mm
07:20 AM 41.7°F5.4°C 38.4°F3.6°C 88% 1.2 mph SSW1.9 kmh SSW 4.6 mph7.4 kmh 29.54 in1000.3 mb - 0.00 in0.0 mm 0.00 in0.0 mm
07:30 AM 41.7°F5.4°C 38.4°F3.6°C 88% Calm Calm -- 29.54 in1000.3 mb - 0.00 in0.0 mm 0.00 in0.0 mm
07:40 AM 41.7°F5.4°C 38.4°F3.6°C 88% Calm Calm -- 29.54 in1000.3 mb - 0.00 in0.0 mm 0.00 in0.0 mm
07:50 AM 41.7°F5.4°C 38.4°F3.6°C 88% Calm Calm -- 29.54 in1000.3 mb - 0.00 in0.0 mm 0.00 in0.0 mm
08:00 AM 41.8°F5.4°C 38.8°F3.8°C 89% Calm Calm 2.3 mph3.7 kmh 29.53 in1000.0 mb - 0.00 in0.0 mm 0.00 in0.0 mm
08:10 AM 42.0°F5.6°C 39.0°F3.9°C 89% Calm Calm -- 29.53 in1000.0 mb - 0.00 in0.0 mm 0.00 in0.0 mm
08:20 AM 42.2°F5.7°C 39.2°F4.0°C 89% Calm Calm -- 29.53 in1000.0 mb - 0.00 in0.0 mm 0.00 in0.0 mm
08:30 AM 42.5°F5.8°C 39.5°F4.2°C 89% Calm Calm -- 29.52 in999.7 mb - 0.00 in0.0 mm 0.00 in0.0 mm
08:40 AM 42.8°F6.0°C 39.5°F4.2°C 88% Calm Calm -- 29.52 in999.7 mb - 0.00 in0.0 mm 0.00 in0.0 mm
08:50 AM 43.1°F6.2°C 39.8°F4.3°C 88% Calm Calm -- 29.53 in1000.0 mb - 0.00 in0.0 mm 0.00 in0.0 mm
09:00 AM 43.4°F6.3°C 40.1°F4.5°C 88% Calm Calm -- 29.52 in999.7 mb - 0.00 in0.0 mm 0.00 in0.0 mm
09:10 AM 43.8°F6.6°C 40.5°F4.7°C 88% Calm Calm -- 29.52 in999.7 mb - 0.00 in0.0 mm 0.00 in0.0 mm
09:20 AM 44.2°F6.8°C 41.2°F5.1°C 89% Calm Calm -- 29.52 in999.7 mb - 0.00 in0.0 mm 0.00 in0.0 mm
09:30 AM 44.7°F7.1°C 41.7°F5.4°C 89% 1.2 mph S1.9 kmh S 3.5 mph5.6 kmh 29.52 in999.7 mb - 0.00 in0.0 mm 0.00 in0.0 mm
09:40 AM 45.2°F7.3°C 42.1°F5.6°C 89% 2.3 mph S3.7 kmh S 4.6 mph7.4 kmh 29.52 in999.7 mb - 0.00 in0.0 mm 0.00 in0.0 mm
09:50 AM 45.6°F7.6°C 42.5°F5.8°C 89% 1.2 mph S1.9 kmh S 3.5 mph5.6 kmh 29.52 in999.7 mb - 0.00 in0.0 mm 0.00 in0.0 mm
10:00 AM 46.1°F7.8°C 43.0°F6.1°C 89% 1.2 mph S1.9 kmh S 5.8 mph9.3 kmh 29.52 in999.7 mb - 0.00 in0.0 mm 0.00 in0.0 mm
10:10 AM 46.4°F8.0°C 43.4°F6.3°C 89% 1.2 mph S1.9 kmh S 5.8 mph9.3 kmh 29.52 in999.7 mb - 0.00 in0.0 mm 0.00 in0.0 mm
10:20 AM 46.8°F8.2°C 43.4°F6.3°C 88% 2.3 mph S3.7 kmh S 5.8 mph9.3 kmh 29.52 in999.7 mb - 0.00 in0.0 mm 0.00 in0.0 mm
10:30 AM 46.8°F8.2°C 43.1°F6.2°C 87% 3.5 mph S5.6 kmh S 8.1 mph13.0 kmh 29.52 in999.7 mb - 0.00 in0.0 mm 0.00 in0.0 mm
10:40 AM 46.7°F8.2°C 42.7°F5.9°C 86% 2.3 mph S3.7 kmh S 5.8 mph9.3 kmh 29.51 in999.3 mb - 0.00 in0.0 mm 0.00 in0.0 mm
10:50 AM 46.9°F8.3°C 42.6°F5.9°C 85% 4.6 mph S7.4 kmh S 10.4 mph16.7 kmh 29.52 in999.7 mb - 0.00 in0.0 mm 0.00 in0.0 mm
11:00 AM 46.7°F8.2°C 41.8°F5.4°C 83% 5.8 mph SW9.3 kmh SW 9.2 mph14.8 kmh 29.52 in999.7 mb - 0.00 in0.0 mm 0.00 in0.0 mm
11:10 AM 46.7°F8.2°C 41.8°F5.4°C 83% 4.6 mph S7.4 kmh S 9.2 mph14.8 kmh 29.52 in999.7 mb - 0.00 in0.0 mm 0.00 in0.0 mm
11:20 AM 46.5°F8.1°C 42.2°F5.7°C 85% 5.8 mph SSW9.3 kmh SSW 11.5 mph18.5 kmh 29.52 in999.7 mb - 0.00 in0.0 mm 0.00 in0.0 mm
11:30 AM 46.3°F7.9°C 42.0°F5.6°C 85% 1.2 mph SSW1.9 kmh SSW 4.6 mph7.4 kmh 29.52 in999.7 mb - 0.00 in0.0 mm 0.00 in0.0 mm
11:40 AM 46.3°F7.9°C 42.3°F5.7°C 86% 3.5 mph S5.6 kmh S 9.2 mph14.8 kmh 29.51 in999.3 mb - 0.00 in0.0 mm 0.00 in0.0 mm
11:50 AM 45.9°F7.7°C 42.2°F5.7°C 87% 4.6 mph S7.4 kmh S 6.9 mph11.1 kmh 29.51 in999.3 mb - 0.00 in0.0 mm 0.00 in0.0 mm
12:00 PM 45.6°F7.6°C 42.3°F5.7°C 88% 3.5 mph SSW5.6 kmh SSW 6.9 mph11.1 kmh 29.51 in999.3 mb - 0.00 in0.0 mm 0.00 in0.0 mm
12:10 PM 45.5°F7.5°C 42.4°F5.8°C 89% 5.8 mph S9.3 kmh S 9.2 mph14.8 kmh 29.51 in999.3 mb - 0.00 in0.0 mm 0.00 in0.0 mm
12:20 PM 45.3°F7.4°C 42.5°F5.8°C 90% 3.5 mph S5.6 kmh S 5.8 mph9.3 kmh 29.51 in999.3 mb - 0.00 in0.0 mm 0.00 in0.0 mm
12:30 PM 45.4°F7.4°C 42.9°F6.1°C 91% 1.2 mph S1.9 kmh S 5.8 mph9.3 kmh 29.51 in999.3 mb - 0.00 in0.0 mm 0.00 in0.0 mm
12:40 PM 45.4°F7.4°C 42.9°F6.1°C 91% 2.3 mph S3.7 kmh S 6.9 mph11.1 kmh 29.50 in999.0 mb - 0.00 in0.0 mm 0.00 in0.0 mm
12:50 PM 45.3°F7.4°C 42.8°F6.0°C 91% 2.3 mph S3.7 kmh S 4.6 mph7.4 kmh 29.49 in998.6 mb - 0.00 in0.0 mm 0.00 in0.0 mm
01:00 PM 45.4°F7.4°C 42.9°F6.1°C 91% 1.2 mph S1.9 kmh S 2.3 mph3.7 kmh 29.50 in999.0 mb - 0.00 in0.0 mm 0.00 in0.0 mm
01:10 PM 45.5°F7.5°C 43.3°F6.3°C 92% Calm Calm 3.5 mph5.6 kmh 29.50 in999.0 mb - 0.00 in0.0 mm 0.00 in0.0 mm
01:20 PM 45.4°F7.4°C 43.2°F6.2°C 92% Calm Calm 2.3 mph3.7 kmh 29.50 in999.0 mb - 0.00 in0.0 mm 0.00 in0.0 mm
01:30 PM 45.4°F7.4°C 43.2°F6.2°C 92% Calm Calm 2.3 mph3.7 kmh 29.49 in998.6 mb - 0.00 in0.0 mm 0.00 in0.0 mm
01:40 PM 45.4°F7.4°C 43.2°F6.2°C 92% 1.2 mph S1.9 kmh S 3.5 mph5.6 kmh 29.49 in998.6 mb - 0.00 in0.0 mm 0.00 in0.0 mm
01:50 PM 45.4°F7.4°C 43.5°F6.4°C 93% Calm Calm 1.2 mph1.9 kmh 29.48 in998.3 mb - 0.00 in0.0 mm 0.00 in0.0 mm
02:00 PM 45.5°F7.5°C 43.6°F6.4°C 93% Calm Calm -- 29.48 in998.3 mb - 0.01 in0.3 mm 0.01 in0.3 mm
02:10 PM 45.6°F7.6°C 43.7°F6.5°C 93% 1.2 mph SSE1.9 kmh SSE 4.6 mph7.4 kmh 29.48 in998.3 mb - 0.00 in0.0 mm 0.01 in0.3 mm
02:20 PM 45.6°F7.6°C 43.7°F6.5°C 93% Calm Calm -- 29.48 in998.3 mb - 0.00 in0.0 mm 0.01 in0.3 mm
02:30 PM 45.7°F7.6°C 43.8°F6.6°C 93% Calm Calm 3.5 mph5.6 kmh 29.47 in998.0 mb - 0.00 in0.0 mm 0.01 in0.3 mm
02:40 PM 45.8°F7.7°C 43.9°F6.6°C 93% Calm Calm 1.2 mph1.9 kmh 29.48 in998.3 mb - 0.00 in0.0 mm 0.01 in0.3 mm
02:50 PM 45.8°F7.7°C 43.6°F6.4°C 92% Calm Calm 2.3 mph3.7 kmh 29.48 in998.3 mb - 0.00 in0.0 mm 0.01 in0.3 mm
03:00 PM 45.7°F7.6°C 43.5°F6.4°C 92% Calm Calm -- 29.48 in998.3 mb - 0.00 in0.0 mm 0.01 in0.3 mm
03:10 PM 45.5°F7.5°C 43.6°F6.4°C 93% Calm Calm -- 29.48 in998.3 mb - 0.00 in0.0 mm 0.01 in0.3 mm
03:20 PM 45.4°F7.4°C 43.5°F6.4°C 93% Calm Calm 1.2 mph1.9 kmh 29.48 in998.3 mb - 0.00 in0.0 mm 0.01 in0.3 mm
03:30 PM 45.5°F7.5°C 43.6°F6.4°C 93% Calm Calm 3.5 mph5.6 kmh 29.47 in998.0 mb - 0.00 in0.0 mm 0.01 in0.3 mm
03:40 PM 45.4°F7.4°C 43.8°F6.6°C 94% 1.2 mph S1.9 kmh S 3.5 mph5.6 kmh 29.47 in998.0 mb - 0.00 in0.0 mm 0.01 in0.3 mm
03:50 PM 45.4°F7.4°C 43.8°F6.6°C 94% Calm Calm 1.2 mph1.9 kmh 29.46 in997.6 mb - 0.00 in0.0 mm 0.01 in0.3 mm
04:00 PM 45.4°F7.4°C 43.8°F6.6°C 94% 1.2 mph S1.9 kmh S 3.5 mph5.6 kmh 29.46 in997.6 mb - 0.00 in0.0 mm 0.01 in0.3 mm
04:10 PM 45.4°F7.4°C 43.8°F6.6°C 94% 2.3 mph S3.7 kmh S 3.5 mph5.6 kmh 29.47 in998.0 mb - 0.00 in0.0 mm 0.01 in0.3 mm
04:20 PM 45.4°F7.4°C 43.8°F6.6°C 94% Calm Calm -- 29.47 in998.0 mb - 0.00 in0.0 mm 0.01 in0.3 mm
04:30 PM 45.4°F7.4°C 43.8°F6.6°C 94% 1.2 mph S1.9 kmh S 5.8 mph9.3 kmh 29.48 in998.3 mb - 0.00 in0.0 mm 0.01 in0.3 mm
04:40 PM 45.3°F7.4°C 43.7°F6.5°C 94% Calm Calm 1.2 mph1.9 kmh 29.47 in998.0 mb - 0.01 in0.3 mm 0.02 in0.5 mm
04:50 PM 45.1°F7.3°C 43.5°F6.4°C 94% 1.2 mph S1.9 kmh S 2.3 mph3.7 kmh 29.47 in998.0 mb - 0.00 in0.0 mm 0.02 in0.5 mm
05:00 PM 45.0°F7.2°C 43.4°F6.3°C 94% Calm Calm 2.3 mph3.7 kmh 29.47 in998.0 mb - 0.01 in0.3 mm 0.02 in0.5 mm
05:10 PM 44.9°F7.2°C 43.3°F6.3°C 94% 1.2 mph SSW1.9 kmh SSW 4.6 mph7.4 kmh 29.47 in998.0 mb - 0.00 in0.0 mm 0.02 in0.5 mm
05:20 PM 44.8°F7.1°C 43.2°F6.2°C 94% Calm Calm 3.5 mph5.6 kmh 29.47 in998.0 mb - 0.00 in0.0 mm 0.02 in0.5 mm
05:30 PM 44.7°F7.1°C 43.1°F6.2°C 94% Calm Calm 1.2 mph1.9 kmh 29.47 in998.0 mb - 0.00 in0.0 mm 0.02 in0.5 mm
05:40 PM 44.7°F7.1°C 43.1°F6.2°C 94% 3.5 mph SSW5.6 kmh SSW 3.5 mph5.6 kmh 29.47 in998.0 mb - 0.00 in0.0 mm 0.02 in0.5 mm
05:50 PM 44.7°F7.1°C 43.1°F6.2°C 94% 2.3 mph SSW3.7 kmh SSW 6.9 mph11.1 kmh 29.47 in998.0 mb - 0.00 in0.0 mm 0.02 in0.5 mm
06:00 PM 44.7°F7.1°C 43.4°F6.3°C 95% 2.3 mph S3.7 kmh S 4.6 mph7.4 kmh 29.47 in998.0 mb - 0.00 in0.0 mm 0.02 in0.5 mm
06:10 PM 44.7°F7.1°C 43.4°F6.3°C 95% 1.2 mph SSW1.9 kmh SSW 3.5 mph5.6 kmh 29.47 in998.0 mb - 0.00 in0.0 mm 0.02 in0.5 mm
06:20 PM 44.7°F7.1°C 43.4°F6.3°C 95% 3.5 mph SSW5.6 kmh SSW 3.5 mph5.6 kmh 29.48 in998.3 mb - 0.00 in0.0 mm 0.02 in0.5 mm
06:30 PM 44.8°F7.1°C 43.5°F6.4°C 95% 3.5 mph SSW5.6 kmh SSW 10.4 mph16.7 kmh 29.48 in998.3 mb - 0.00 in0.0 mm 0.02 in0.5 mm
06:40 PM 44.9°F7.2°C 43.6°F6.4°C 95% 4.6 mph SW7.4 kmh SW 8.1 mph13.0 kmh 29.49 in998.6 mb - 0.00 in0.0 mm 0.02 in0.5 mm
06:50 PM 44.7°F7.1°C 43.4°F6.3°C 95% 6.9 mph SW11.1 kmh SW 12.7 mph20.4 kmh 29.49 in998.6 mb - 0.01 in0.3 mm 0.03 in0.8 mm
07:00 PM 45.0°F7.2°C 42.8°F6.0°C 92% 8.1 mph SW13.0 kmh SW 19.6 mph31.5 kmh 29.49 in998.6 mb - 0.00 in0.0 mm 0.03 in0.8 mm
07:10 PM 45.5°F7.5°C 41.8°F5.4°C 87% 10.4 mph SW16.7 kmh SW 18.4 mph29.6 kmh 29.50 in999.0 mb - 0.00 in0.0 mm 0.03 in0.8 mm
07:20 PM 45.6°F7.6°C 41.0°F5.0°C 84% 12.7 mph WSW20.4 kmh WSW 13.8 mph22.2 kmh 29.51 in999.3 mb - 0.00 in0.0 mm 0.03 in0.8 mm
07:30 PM 45.6°F7.6°C 40.7°F4.8°C 83% 10.4 mph SW16.7 kmh SW 15.0 mph24.1 kmh 29.51 in999.3 mb - 0.01 in0.3 mm 0.04 in1.0 mm
07:40 PM 45.4°F7.4°C 40.6°F4.8°C 83% 5.8 mph SW9.3 kmh SW 8.1 mph13.0 kmh 29.51 in999.3 mb - 0.00 in0.0 mm 0.04 in1.0 mm
07:50 PM 45.5°F7.5°C 40.6°F4.8°C 83% 8.1 mph SW13.0 kmh SW 12.7 mph20.4 kmh 29.52 in999.7 mb - 0.00 in0.0 mm 0.04 in1.0 mm
08:00 PM 45.6°F7.6°C 40.7°F4.8°C 83% 8.1 mph SW13.0 kmh SW 11.5 mph18.5 kmh 29.53 in1000.0 mb - 0.00 in0.0 mm 0.04 in1.0 mm
08:10 PM 45.5°F7.5°C 40.3°F4.6°C 82% 10.4 mph SW16.7 kmh SW 19.6 mph31.5 kmh 29.54 in1000.3 mb - 0.00 in0.0 mm 0.04 in1.0 mm
08:20 PM 45.4°F7.4°C 40.5°F4.7°C 83% 5.8 mph WSW9.3 kmh WSW 12.7 mph20.4 kmh 29.54 in1000.3 mb - 0.00 in0.0 mm 0.04 in1.0 mm
08:30 PM 44.6°F7.0°C 40.4°F4.7°C 85% 10.4 mph SW16.7 kmh SW 18.4 mph29.6 kmh 29.55 in1000.7 mb - 0.01 in0.3 mm 0.05 in1.3 mm
08:40 PM 44.2°F6.8°C 40.6°F4.8°C 87% 10.4 mph SW16.7 kmh SW 18.4 mph29.6 kmh 29.56 in1001.0 mb - 0.00 in0.0 mm 0.05 in1.3 mm
08:50 PM 43.8°F6.6°C 38.7°F3.7°C 82% 8.1 mph W13.0 kmh W 11.5 mph18.5 kmh 29.56 in1001.0 mb - 0.00 in0.0 mm 0.05 in1.3 mm
09:00 PM 43.6°F6.4°C 38.8°F3.8°C 83% 9.2 mph SW14.8 kmh SW 16.1 mph25.9 kmh 29.57 in1001.4 mb - 0.01 in0.3 mm 0.06 in1.5 mm
09:10 PM 43.3°F6.3°C 38.8°F3.8°C 84% 10.4 mph SW16.7 kmh SW 11.5 mph18.5 kmh 29.58 in1001.7 mb - 0.00 in0.0 mm 0.06 in1.5 mm
09:20 PM 43.2°F6.2°C 39.0°F3.9°C 85% 11.5 mph WSW18.5 kmh WSW 19.6 mph31.5 kmh 29.59 in1002.0 mb - 0.00 in0.0 mm 0.06 in1.5 mm
09:30 PM 43.2°F6.2°C 38.4°F3.6°C 83% 8.1 mph WSW13.0 kmh WSW 12.7 mph20.4 kmh 29.59 in1002.0 mb - 0.01 in0.3 mm 0.06 in1.5 mm
09:40 PM 43.2°F6.2°C 37.8°F3.2°C 81% 8.1 mph SW13.0 kmh SW 13.8 mph22.2 kmh 29.60 in1002.4 mb - 0.00 in0.0 mm 0.06 in1.5 mm
09:50 PM 43.3°F6.3°C 37.2°F2.9°C 79% 9.2 mph SW14.8 kmh SW 12.7 mph20.4 kmh 29.60 in1002.4 mb - 0.00 in0.0 mm 0.06 in1.5 mm
10:00 PM 43.3°F6.3°C 36.9°F2.7°C 78% 10.4 mph SW16.7 kmh SW 18.4 mph29.6 kmh 29.61 in1002.7 mb - 0.01 in0.3 mm 0.07 in1.8 mm
10:10 PM 43.3°F6.3°C 36.6°F2.6°C 77% 5.8 mph SW9.3 kmh SW 8.1 mph13.0 kmh 29.61 in1002.7 mb - 0.00 in0.0 mm 0.07 in1.8 mm
10:20 PM 43.1°F6.2°C 36.7°F2.6°C 78% 6.9 mph SW11.1 kmh SW 13.8 mph22.2 kmh 29.61 in1002.7 mb - 0.00 in0.0 mm 0.07 in1.8 mm
10:30 PM 42.9°F6.1°C 36.5°F2.5°C 78% 4.6 mph SW7.4 kmh SW 11.5 mph18.5 kmh 29.62 in1003.0 mb - 0.00 in0.0 mm 0.07 in1.8 mm
10:40 PM 42.6°F5.9°C 36.2°F2.3°C 78% 8.1 mph SW13.0 kmh SW 10.4 mph16.7 kmh 29.62 in1003.0 mb - 0.01 in0.3 mm 0.08 in2.0 mm
10:50 PM 42.7°F5.9°C 35.3°F1.8°C 75% 8.1 mph SW13.0 kmh SW 11.5 mph18.5 kmh 29.63 in1003.4 mb - 0.00 in0.0 mm 0.08 in2.0 mm
11:00 PM 42.8°F6.0°C 35.1°F1.7°C 74% 3.5 mph SW5.6 kmh SW 8.1 mph13.0 kmh 29.62 in1003.0 mb - 0.00 in0.0 mm 0.08 in2.0 mm
11:10 PM 43.1°F6.2°C 34.7°F1.5°C 72% 9.2 mph SW14.8 kmh SW 13.8 mph22.2 kmh 29.63 in1003.4 mb - 0.00 in0.0 mm 0.08 in2.0 mm
11:20 PM 43.2°F6.2°C 34.8°F1.6°C 72% 3.5 mph SW5.6 kmh SW 6.9 mph11.1 kmh 29.63 in1003.4 mb - 0.00 in0.0 mm 0.08 in2.0 mm
11:30 PM 43.1°F6.2°C 34.7°F1.5°C 72% 4.6 mph SW7.4 kmh SW 13.8 mph22.2 kmh 29.64 in1003.7 mb - 0.00 in0.0 mm 0.08 in2.0 mm
11:40 PM 43.4°F6.3°C 35.0°F1.7°C 72% 8.1 mph SW13.0 kmh SW 12.7 mph20.4 kmh 29.64 in1003.7 mb - 0.00 in0.0 mm 0.08 in2.0 mm